Time;durP1;ratioP1;P1;durP2;ratioP2;P2;SDS_P1;SDS_P2;PMS_P1;PMS_P2;Temp;Humidity;BMP_temperature;BMP_pressure;BME280_temperature;BME280_humidity;BME280_pressure;Samples;Min_cycle;Max_cycle;Signal;HPM_P1;HPM_P2
2023/12/21 00:00:20;;;;;;;9.80;2.97;;;11.10;86.40;;;;;;5055829;28;20421;-65
2023/12/21 00:02:46;;;;;;;9.60;3.20;;;11.10;86.40;;;;;;5052688;28;20410;-66
2023/12/21 00:05:12;;;;;;;9.98;2.78;;;11.10;86.40;;;;;;5055252;28;20434;-65
2023/12/21 00:07:37;;;;;;;11.32;3.40;;;11.20;86.40;;;;;;5055242;28;20040;-65
2023/12/21 00:10:04;;;;;;;10.77;2.83;;;11.10;86.40;;;;;;5053613;28;20033;-65
2023/12/21 00:12:29;;;;;;;8.70;2.83;;;11.10;86.40;;;;;;5054134;28;20434;-65
2023/12/21 00:14:56;;;;;;;9.45;3.30;;;11.10;86.50;;;;;;5052790;28;20082;-65
2023/12/21 00:17:21;;;;;;;8.30;2.78;;;11.10;86.40;;;;;;5055618;28;20033;-65
2023/12/21 00:19:47;;;;;;;11.50;3.42;;;11.10;86.40;;;;;;5057437;28;20032;-65
2023/12/21 00:22:13;;;;;;;8.40;2.85;;;11.10;86.40;;;;;;5056070;28;20437;-65
2023/12/21 00:24:38;;;;;;;8.48;3.08;;;11.10;86.40;;;;;;5056274;28;20029;-65
2023/12/21 00:27:04;;;;;;;9.85;2.90;;;11.20;86.40;;;;;;5038120;28;20032;-65
2023/12/21 00:29:30;;;;;;;12.40;3.00;;;11.20;86.40;;;;;;5054470;28;20032;-65
2023/12/21 00:31:56;;;;;;;7.80;3.17;;;11.20;86.40;;;;;;5054636;28;20061;-65
2023/12/21 00:34:21;;;;;;;8.02;2.97;;;11.20;86.40;;;;;;5034880;28;20109;-65
2023/12/21 00:36:47;;;;;;;8.63;3.03;;;11.20;87.10;;;;;;5055172;28;20176;-65
2023/12/21 00:39:13;;;;;;;10.35;3.75;;;11.20;86.50;;;;;;5054426;28;20048;-65
2023/12/21 00:41:39;;;;;;;9.02;3.05;;;11.20;86.50;;;;;;5053936;28;20029;-65
2023/12/21 00:44:04;;;;;;;7.28;2.97;;;11.10;86.40;;;;;;5055102;28;20021;-65
2023/12/21 00:46:30;;;;;;;8.85;2.70;;;11.20;86.60;;;;;;5055478;28;20055;-65
2023/12/21 00:48:56;;;;;;;6.70;2.75;;;11.20;86.50;;;;;;5054594;28;20097;-65
2023/12/21 00:51:21;;;;;;;8.25;2.80;;;11.20;86.50;;;;;;5054410;28;20077;-65
2023/12/21 00:53:47;;;;;;;7.35;3.10;;;11.20;86.50;;;;;;5053840;28;20070;-65
2023/12/21 00:56:13;;;;;;;9.55;3.30;;;11.20;86.50;;;;;;5051571;28;20025;-65
2023/12/21 00:58:38;;;;;;;11.70;2.95;;;11.20;86.50;;;;;;5052333;28;20031;-65
2023/12/21 01:01:04;;;;;;;7.10;3.03;;;11.20;86.50;;;;;;5053562;28;20056;-65
2023/12/21 01:03:30;;;;;;;14.27;3.83;;;11.20;86.50;;;;;;5052348;28;20024;-65
2023/12/21 01:05:56;;;;;;;9.25;2.55;;;11.20;86.60;;;;;;5052764;28;20348;-65
2023/12/21 01:08:22;;;;;;;10.15;2.80;;;11.20;86.60;;;;;;5051047;28;20029;-65
2023/12/21 01:10:48;;;;;;;9.77;2.92;;;11.20;86.50;;;;;;5053227;28;20029;-65
2023/12/21 01:13:14;;;;;;;7.53;2.92;;;11.20;86.50;;;;;;5052038;28;20376;-65
2023/12/21 01:15:41;;;;;;;7.43;3.13;;;11.20;86.40;;;;;;5051670;28;20020;-65
2023/12/21 01:18:06;;;;;;;8.32;3.60;;;11.20;86.50;;;;;;5054290;28;20103;-65
2023/12/21 01:20:32;;;;;;;8.52;3.45;;;11.20;86.50;;;;;;5051634;28;20104;-65
2023/12/21 01:22:58;;;;;;;10.07;3.97;;;11.20;86.50;;;;;;5052902;28;20028;-65
2023/12/21 01:25:23;;;;;;;9.85;3.75;;;11.20;86.50;;;;;;5052200;28;20039;-65
2023/12/21 01:27:49;;;;;;;9.70;3.70;;;11.20;86.50;;;;;;5053165;28;20025;-66
2023/12/21 01:30:15;;;;;;;11.50;3.67;;;11.20;86.60;;;;;;5051660;28;20421;-65
2023/12/21 01:32:41;;;;;;;10.07;3.90;;;11.20;86.60;;;;;;5053089;28;20025;-65
2023/12/21 01:35:07;;;;;;;7.25;3.35;;;11.20;86.50;;;;;;5051605;28;20024;-66
2023/12/21 01:37:33;;;;;;;9.18;3.35;;;11.20;86.60;;;;;;5053025;28;20089;-65
2023/12/21 01:39:59;;;;;;;11.05;3.22;;;11.20;86.50;;;;;;5052466;28;20388;-65
2023/12/21 01:42:25;;;;;;;10.75;3.45;;;11.20;86.40;;;;;;5051780;28;20044;-66
2023/12/21 01:44:50;;;;;;;10.68;3.70;;;11.20;86.40;;;;;;5052091;28;20449;-65
2023/12/21 01:47:17;;;;;;;9.30;3.58;;;11.20;86.40;;;;;;5052165;28;20059;-65
2023/12/21 01:49:43;;;;;;;12.00;3.20;;;11.20;86.50;;;;;;5052698;28;20357;-65
2023/12/21 01:52:09;;;;;;;11.77;3.00;;;11.20;86.40;;;;;;5051947;28;20029;-65
2023/12/21 01:54:36;;;;;;;13.20;4.32;;;11.20;86.40;;;;;;5051033;28;20048;-65
2023/12/21 01:57:02;;;;;;;14.23;3.70;;;11.20;86.40;;;;;;5050599;28;20021;-65
2023/12/21 01:59:29;;;;;;;12.02;3.40;;;11.20;86.40;;;;;;5051637;28;20412;-65
2023/12/21 02:01:55;;;;;;;9.25;3.22;;;11.20;86.40;;;;;;5050980;28;20025;-65
2023/12/21 02:04:21;;;;;;;9.80;2.90;;;11.20;86.40;;;;;;5033872;28;20033;-66
2023/12/21 02:06:47;;;;;;;10.48;3.05;;;11.20;86.40;;;;;;5049588;28;20539;-65
2023/12/21 02:09:13;;;;;;;12.80;3.22;;;11.20;86.50;;;;;;5052494;28;20043;-65
2023/12/21 02:11:39;;;;;;;8.63;2.78;;;11.20;86.40;;;;;;5050867;28;20404;-65
2023/12/21 02:14:05;;;;;;;8.07;2.67;;;11.20;86.50;;;;;;5051843;28;20017;-65
2023/12/21 02:16:51;;;;;;;10.10;2.72;;;11.20;86.60;;;;;;5052186;28;20330;-65
2023/12/21 02:19:19;;;;;;;9.13;2.90;;;11.20;86.50;;;;;;5051426;28;20407;-65
2023/12/21 02:21:46;;;;;;;8.88;2.33;;;11.20;86.60;;;;;;5052498;28;20354;-65
2023/12/21 02:24:14;;;;;;;9.40;3.03;;;11.20;86.60;;;;;;5049899;28;20403;-65
2023/12/21 02:26:40;;;;;;;7.20;2.55;;;11.20;86.60;;;;;;5035000;28;20346;-65
2023/12/21 02:29:06;;;;;;;8.88;2.70;;;11.20;86.50;;;;;;5034819;28;20020;-65
2023/12/21 02:31:32;;;;;;;10.52;3.05;;;11.20;86.50;;;;;;5051379;28;20082;-65
2023/12/21 02:33:58;;;;;;;7.65;2.60;;;11.20;86.40;;;;;;5051669;28;20037;-65
2023/12/21 02:36:23;;;;;;;10.23;2.90;;;11.30;86.50;;;;;;5050111;28;20056;-65
2023/12/21 02:38:49;;;;;;;11.07;3.40;;;11.30;86.50;;;;;;5059708;28;20354;-65
2023/12/21 02:41:15;;;;;;;8.38;2.83;;;11.30;86.50;;;;;;5048958;28;20033;-65
2023/12/21 02:43:40;;;;;;;8.98;2.83;;;11.30;86.50;;;;;;5048338;28;20108;-65
2023/12/21 02:46:06;;;;;;;11.80;3.60;;;11.30;86.50;;;;;;5045627;28;20477;-65
2023/12/21 02:48:32;;;;;;;9.98;3.03;;;11.30;86.50;;;;;;5045823;28;20029;-65
2023/12/21 02:51:02;;;;;;;7.82;2.85;;;11.30;86.40;;;;;;5022032;28;20048;-65
2023/12/21 02:53:28;;;;;;;12.07;3.00;;;11.30;86.40;;;;;;5036757;28;20030;-65
2023/12/21 02:55:53;;;;;;;13.07;3.17;;;11.30;86.50;;;;;;5040486;28;20032;-65
2023/12/21 02:58:19;;;;;;;9.77;3.15;;;11.30;86.50;;;;;;5039237;28;20044;-65
2023/12/21 03:00:45;;;;;;;9.75;2.70;;;11.20;86.60;;;;;;5039099;28;20029;-65
2023/12/21 03:03:11;;;;;;;10.85;3.15;;;11.20;86.60;;;;;;5037467;28;20358;-65
2023/12/21 03:05:37;;;;;;;9.00;2.58;;;11.20;86.60;;;;;;5042806;28;20036;-65
2023/12/21 03:08:03;;;;;;;9.40;3.20;;;11.20;86.60;;;;;;5040508;28;20026;-65
2023/12/21 03:10:29;;;;;;;11.88;3.13;;;11.20;86.60;;;;;;5040250;28;20140;-65
2023/12/21 03:12:55;;;;;;;10.50;2.72;;;11.30;86.70;;;;;;5045008;28;20112;-65
2023/12/21 03:15:20;;;;;;;11.13;2.83;;;11.20;86.70;;;;;;5048320;28;20029;-65
2023/12/21 03:17:47;;;;;;;10.98;3.20;;;11.20;86.60;;;;;;5041167;28;20064;-65
2023/12/21 03:20:12;;;;;;;9.00;2.70;;;11.20;86.60;;;;;;5039236;28;20036;-65
2023/12/21 03:22:38;;;;;;;12.55;3.00;;;11.30;86.70;;;;;;5042094;28;20112;-65
2023/12/21 03:25:04;;;;;;;13.18;3.10;;;11.20;86.60;;;;;;5038704;28;20033;-65
2023/12/21 03:27:30;;;;;;;8.27;2.72;;;11.30;86.60;;;;;;5040113;28;20037;-65
2023/12/21 03:29:56;;;;;;;11.02;2.90;;;11.20;86.50;;;;;;5041428;28;20116;-66
2023/12/21 03:32:21;;;;;;;11.50;3.03;;;11.30;86.60;;;;;;5047034;28;20111;-65
2023/12/21 03:34:49;;;;;;;12.32;3.63;;;11.30;86.60;;;;;;5045472;28;20021;-65
2023/12/21 03:37:15;;;;;;;11.40;3.20;;;11.30;86.60;;;;;;5051433;28;20102;-65
2023/12/21 03:39:40;;;;;;;14.98;3.55;;;11.30;86.60;;;;;;5054243;28;20442;-65
2023/12/21 03:42:06;;;;;;;8.15;2.40;;;11.30;86.60;;;;;;5057317;28;20029;-65
2023/12/21 03:44:32;;;;;;;9.40;3.03;;;11.30;86.60;;;;;;5057684;28;20033;-65
2023/12/21 03:46:58;;;;;;;11.27;3.40;;;11.30;86.60;;;;;;5056518;28;20021;-65
2023/12/21 03:49:25;;;;;;;9.60;3.53;;;11.30;86.50;;;;;;5047103;28;20492;-65
2023/12/21 03:51:51;;;;;;;10.15;2.90;;;11.30;86.50;;;;;;5040777;28;20033;-65
2023/12/21 03:54:17;;;;;;;8.65;3.20;;;11.30;86.60;;;;;;5044589;28;20025;-65
2023/12/21 03:56:42;;;;;;;9.93;2.70;;;11.30;86.60;;;;;;5040564;28;20461;-65
2023/12/21 03:59:08;;;;;;;11.77;3.20;;;11.30;86.60;;;;;;5037326;28;20034;-65
2023/12/21 04:01:34;;;;;;;13.70;3.53;;;11.30;86.60;;;;;;5041797;28;20033;-65
2023/12/21 04:03:59;;;;;;;8.43;3.10;;;11.30;86.60;;;;;;5041317;28;20025;-65
2023/12/21 04:06:25;;;;;;;11.43;3.13;;;11.30;86.60;;;;;;5055055;28;20041;-65
2023/12/21 04:08:54;;;;;;;10.77;3.10;;;11.30;86.60;;;;;;5054093;28;20025;-65
2023/12/21 04:11:20;;;;;;;10.40;3.35;;;11.30;86.60;;;;;;5051309;28;20048;-65
2023/12/21 04:13:49;;;;;;;11.25;3.28;;;11.30;86.60;;;;;;5045913;28;20036;-65
2023/12/21 04:16:15;;;;;;;12.35;3.22;;;11.30;86.70;;;;;;5036539;28;20025;-65
2023/12/21 04:18:40;;;;;;;10.02;2.88;;;11.30;86.70;;;;;;5055157;28;20021;-65
2023/12/21 04:21:07;;;;;;;11.98;3.65;;;11.30;86.70;;;;;;5043386;28;20029;-66
2023/12/21 04:23:33;;;;;;;13.32;2.70;;;11.20;86.70;;;;;;5037745;28;20315;-65
2023/12/21 04:25:59;;;;;;;9.43;3.13;;;11.30;86.80;;;;;;5039342;28;20036;-65
2023/12/21 04:28:25;;;;;;;12.40;2.65;;;11.20;86.60;;;;;;5047863;28;20033;-65
2023/12/21 04:30:50;;;;;;;12.45;3.22;;;11.30;86.70;;;;;;5046780;28;20029;-65
2023/12/21 04:33:16;;;;;;;15.25;3.38;;;11.30;86.70;;;;;;5041322;28;20017;-65
2023/12/21 04:35:46;;;;;;;11.70;3.28;;;11.30;86.60;;;;;;5022866;28;20040;-65
2023/12/21 04:38:12;;;;;;;15.00;3.65;;;11.30;86.70;;;;;;5038121;28;20599;-65
2023/12/21 04:40:38;;;;;;;7.50;2.72;;;11.30;86.60;;;;;;5045815;28;20031;-65
2023/12/21 04:43:07;;;;;;;11.88;3.30;;;11.30;86.60;;;;;;5036978;28;20112;-65
2023/12/21 04:45:33;;;;;;;12.75;2.90;;;11.30;86.60;;;;;;5033658;28;20343;-65
2023/12/21 04:47:59;;;;;;;10.48;2.90;;;11.30;86.60;;;;;;5039966;28;20111;-65
2023/12/21 04:50:25;;;;;;;14.10;3.25;;;11.30;86.60;;;;;;5034187;28;20409;-65
2023/12/21 04:52:52;;;;;;;11.18;2.80;;;11.30;86.60;;;;;;5043150;28;20033;-65
2023/12/21 04:55:18;;;;;;;10.65;2.67;;;11.30;86.60;;;;;;5039002;28;20033;-65
2023/12/21 04:57:43;;;;;;;10.50;2.75;;;11.30;86.60;;;;;;5038521;28;20489;-65
2023/12/21 05:00:10;;;;;;;11.70;2.75;;;11.30;86.60;;;;;;5035522;28;20040;-65
2023/12/21 05:02:35;;;;;;;12.27;2.92;;;11.30;86.60;;;;;;5034578;28;20452;-65
2023/12/21 05:05:01;;;;;;;11.27;2.50;;;11.40;86.60;;;;;;5036503;28;20117;-65
2023/12/21 05:07:27;;;;;;;8.85;2.58;;;11.30;86.50;;;;;;5038300;28;20068;-65
2023/12/21 05:09:58;;;;;;;10.40;2.80;;;11.30;86.50;;;;;;5039110;28;20469;-65
2023/12/21 05:12:27;;;;;;;;;;;11.30;86.50;;;;;;5044687;28;20044;-65
2023/12/21 05:14:53;;;;;;;10.02;2.88;;;11.30;86.50;;;;;;5038440;28;20234;-65
2023/12/21 05:17:19;;;;;;;11.18;2.70;;;11.30;86.40;;;;;;5039355;28;20051;-65
2023/12/21 05:19:46;;;;;;;8.25;2.85;;;11.30;86.40;;;;;;5018498;28;20021;-65
2023/12/21 05:22:12;;;;;;;9.65;2.78;;;11.30;86.40;;;;;;5038108;28;20407;-65
2023/12/21 05:24:40;;;;;;;12.02;3.25;;;11.40;86.40;;;;;;5038561;28;20068;-65
2023/12/21 05:27:06;;;;;;;13.35;2.80;;;11.40;86.50;;;;;;5035191;28;20087;-65
2023/12/21 05:29:32;;;;;;;10.27;2.95;;;11.40;86.60;;;;;;5018543;28;20029;-66
2023/12/21 05:31:58;;;;;;;11.43;2.92;;;11.40;86.50;;;;;;5036234;28;20476;-65
2023/12/21 05:34:24;;;;;;;11.98;2.90;;;11.30;86.50;;;;;;5045989;28;20090;-65
2023/12/21 05:36:50;;;;;;;6.72;2.53;;;11.40;86.60;;;;;;5041449;28;20050;-65
2023/12/21 05:39:16;;;;;;;9.35;3.10;;;11.40;86.70;;;;;;5038125;28;20059;-65
2023/12/21 05:41:42;;;;;;;9.10;2.90;;;11.30;86.70;;;;;;5039888;28;20358;-65
2023/12/21 05:44:08;;;;;;;12.65;3.22;;;11.30;86.70;;;;;;5044784;28;20033;-65
2023/12/21 05:46:34;;;;;;;11.10;3.30;;;11.30;86.70;;;;;;5032760;28;20033;-65
2023/12/21 05:49:00;;;;;;;10.30;3.05;;;11.30;86.70;;;;;;5037650;28;20037;-65
2023/12/21 05:51:25;;;;;;;10.32;3.00;;;11.30;86.70;;;;;;5020432;28;20097;-65
2023/12/21 05:53:51;;;;;;;10.68;3.40;;;11.40;86.80;;;;;;5040264;28;20040;-65
2023/12/21 05:56:17;;;;;;;9.27;2.83;;;11.30;86.70;;;;;;5039032;28;20032;-65
2023/12/21 05:58:43;;;;;;;13.15;3.40;;;11.40;86.80;;;;;;5034560;28;20053;-65
2023/12/21 06:01:09;;;;;;;11.32;2.75;;;11.40;86.80;;;;;;5034627;28;20034;-65
2023/12/21 06:03:35;;;;;;;9.95;3.20;;;11.30;86.80;;;;;;5047952;28;20037;-65
2023/12/21 06:06:00;;;;;;;10.88;3.50;;;11.40;86.80;;;;;;5034807;28;20025;-65
2023/12/21 06:08:26;;;;;;;8.98;2.70;;;11.40;86.80;;;;;;5051895;28;20029;-65
2023/12/21 06:10:52;;;;;;;11.95;3.50;;;11.40;86.90;;;;;;5037694;28;20435;-65
2023/12/21 06:13:18;;;;;;;10.90;3.45;;;11.30;86.80;;;;;;5053696;28;20036;-65
2023/12/21 06:15:43;;;;;;;11.65;3.55;;;11.30;86.80;;;;;;5055170;28;20488;-66
2023/12/21 06:18:09;;;;;;;8.98;2.85;;;11.30;86.90;;;;;;5056100;28;20025;-65
2023/12/21 06:20:35;;;;;;;9.48;2.97;;;11.40;87.00;;;;;;5056639;28;20032;-65
2023/12/21 06:23:02;;;;;;;8.73;2.60;;;11.40;86.90;;;;;;5053620;28;20074;-65
2023/12/21 06:25:29;;;;;;;11.27;3.42;;;11.40;86.90;;;;;;5054922;28;20044;-65
2023/12/21 06:27:55;;;;;;;7.15;3.13;;;11.30;86.90;;;;;;5056718;28;20033;-65
2023/12/21 06:30:21;;;;;;;7.35;2.58;;;11.40;87.00;;;;;;5055087;28;20361;-65
2023/12/21 06:32:46;;;;;;;8.40;3.17;;;11.40;86.90;;;;;;5055897;28;20114;-65
2023/12/21 06:35:13;;;;;;;9.80;2.78;;;11.40;86.90;;;;;;5059691;28;20032;-65
2023/12/21 06:37:38;;;;;;;10.65;3.08;;;11.40;86.90;;;;;;5058874;28;20052;-65
2023/12/21 06:40:05;;;;;;;10.32;3.00;;;11.40;87.00;;;;;;5058790;28;20029;-64
2023/12/21 06:42:31;;;;;;;8.70;3.22;;;11.40;87.00;;;;;;5064608;28;20029;-63
2023/12/21 06:44:57;;;;;;;12.05;3.10;;;11.40;87.00;;;;;;5075580;28;20361;-63
2023/12/21 06:47:23;;;;;;;7.03;2.38;;;11.40;87.00;;;;;;5042775;28;20037;-63
2023/12/21 06:49:49;;;;;;;8.95;2.45;;;11.40;87.00;;;;;;5077566;28;20021;-63
2023/12/21 06:52:14;;;;;;;8.23;2.75;;;11.40;87.10;;;;;;5066994;28;20025;-63
2023/12/21 06:54:40;;;;;;;7.80;2.42;;;11.40;87.10;;;;;;5064781;28;20396;-64
2023/12/21 06:57:06;;;;;;;8.88;3.22;;;11.40;87.10;;;;;;5066714;28;20047;-63
2023/12/21 06:59:31;;;;;;;7.88;2.97;;;11.40;87.10;;;;;;5072979;28;20024;-64
2023/12/21 07:01:57;;;;;;;11.50;2.97;;;11.40;87.10;;;;;;5067254;28;20083;-64
2023/12/21 07:04:23;;;;;;;8.15;2.70;;;11.40;87.10;;;;;;5054414;28;20040;-63
2023/12/21 07:06:49;;;;;;;10.13;2.83;;;11.40;87.10;;;;;;5074363;28;20034;-63
2023/12/21 07:09:17;;;;;;;10.68;3.05;;;11.40;87.20;;;;;;5051097;28;20032;-64
2023/12/21 07:11:43;;;;;;;7.93;2.67;;;11.40;87.20;;;;;;5070138;28;20120;-63
2023/12/21 07:14:08;;;;;;;11.07;2.92;;;11.40;87.10;;;;;;5057812;28;20112;-63
2023/12/21 07:16:34;;;;;;;9.27;2.67;;;11.40;87.20;;;;;;5057497;28;20386;-64
2023/12/21 07:19:02;;;;;;;10.10;2.60;;;11.40;87.10;;;;;;5064070;28;20097;-64
2023/12/21 07:21:28;;;;;;;6.18;2.70;;;11.40;87.10;;;;;;5059364;28;20392;-65
2023/12/21 07:23:54;;;;;;;8.00;2.80;;;11.50;87.10;;;;;;5056861;28;20071;-65
2023/12/21 07:26:20;;;;;;;10.60;2.90;;;11.40;87.00;;;;;;5045545;28;20057;-68
2023/12/21 07:28:45;;;;;;;8.95;2.53;;;11.50;87.10;;;;;;5040220;28;20029;-66
2023/12/21 07:31:13;;;;;;;7.30;2.53;;;11.50;87.10;;;;;;5055511;28;20051;-64
2023/12/21 07:33:39;;;;;;;9.82;3.15;;;11.50;87.10;;;;;;5058066;28;20071;-63
2023/12/21 07:36:07;;;;;;;6.40;2.17;;;11.50;87.10;;;;;;5037750;28;20037;-64
2023/12/21 07:38:40;;;;;;;11.77;2.55;;;11.50;87.10;;;;;;5054595;28;20080;-66
2023/12/21 07:41:06;;;;;;;;;;;11.50;87.00;;;;;;5061701;28;20036;-66
2023/12/21 07:43:32;;;;;;;9.60;2.17;;;11.50;87.00;;;;;;5063417;28;19938;-65
2023/12/21 07:45:58;;;;;;;11.00;2.60;;;11.50;87.00;;;;;;5067773;28;20033;-65
2023/12/21 07:48:24;;;;;;;8.10;2.60;;;11.50;86.90;;;;;;5062592;28;20047;-63
2023/12/21 07:50:49;;;;;;;10.30;2.80;;;11.50;86.90;;;;;;5070577;28;20036;-61
2023/12/21 07:53:15;;;;;;;10.65;3.00;;;11.50;87.00;;;;;;5058967;28;20033;-62
2023/12/21 07:55:42;;;;;;;9.85;2.50;;;11.50;87.00;;;;;;5061906;28;20025;-63
2023/12/21 07:58:07;;;;;;;7.15;2.30;;;11.50;87.00;;;;;;5058952;28;20047;-62
2023/12/21 08:00:33;;;;;;;7.38;1.85;;;11.50;87.20;;;;;;5064814;28;20028;-62
2023/12/21 08:02:59;;;;;;;9.75;2.70;;;11.50;87.30;;;;;;5058412;28;20419;-63
2023/12/21 08:05:24;;;;;;;7.25;2.42;;;11.50;87.20;;;;;;5061232;28;20040;-63
2023/12/21 08:07:51;;;;;;;8.15;1.80;;;11.40;87.20;;;;;;5055730;28;20024;-62
2023/12/21 08:10:17;;;;;;;8.20;2.08;;;11.40;87.20;;;;;;5061502;28;20029;-62
2023/12/21 08:12:44;;;;;;;9.85;2.17;;;11.40;87.20;;;;;;5055579;28;20033;-63
2023/12/21 08:15:10;;;;;;;7.63;2.20;;;11.40;87.30;;;;;;5065329;28;20016;-63
2023/12/21 08:17:36;;;;;;;8.10;2.70;;;11.40;87.30;;;;;;5055373;28;20025;-62
2023/12/21 08:20:04;;;;;;;6.68;2.20;;;11.40;87.30;;;;;;5056003;28;20120;-63
2023/12/21 08:22:33;;;;;;;7.88;2.05;;;11.50;87.40;;;;;;5055186;28;20037;-64
2023/12/21 08:24:59;;;;;;;9.10;2.10;;;11.40;87.40;;;;;;5054817;28;20366;-64
2023/12/21 08:27:25;;;;;;;8.57;2.42;;;11.40;87.50;;;;;;5036800;28;20036;-63
2023/12/21 08:29:51;;;;;;;5.85;1.60;;;11.40;87.50;;;;;;5064600;28;20032;-63
2023/12/21 08:32:19;;;;;;;5.85;1.60;;;11.40;87.60;;;;;;5036571;28;20484;-63
2023/12/21 08:34:45;;;;;;;6.90;1.80;;;11.40;87.60;;;;;;5053914;28;20029;-63
2023/12/21 08:37:12;;;;;;;8.82;1.75;;;11.40;87.50;;;;;;5068102;28;20059;-63
2023/12/21 08:39:39;;;;;;;5.97;1.77;;;11.50;87.60;;;;;;5065525;28;20029;-63
2023/12/21 08:42:08;;;;;;;6.68;1.85;;;11.50;87.60;;;;;;5054491;28;20039;-62
2023/12/21 08:44:37;;;;;;;7.22;1.92;;;11.50;88.30;;;;;;5055061;28;20025;-63
2023/12/21 08:47:05;;;;;;;6.85;1.73;;;11.50;87.60;;;;;;5052010;28;20146;-63
2023/12/21 08:49:33;;;;;;;5.10;1.80;;;11.50;87.70;;;;;;5050301;28;20159;-64
2023/12/21 08:51:59;;;;;;;6.00;1.73;;;11.50;87.70;;;;;;5050239;28;20108;-63
2023/12/21 08:54:25;;;;;;;8.25;2.38;;;11.50;87.70;;;;;;5053457;28;20028;-63
2023/12/21 08:56:51;;;;;;;6.45;1.77;;;11.50;87.70;;;;;;5052425;28;20354;-64
2023/12/21 08:59:17;;;;;;;6.28;1.83;;;11.50;87.70;;;;;;5050811;28;20087;-63
2023/12/21 09:01:43;;;;;;;3.92;1.50;;;11.50;87.70;;;;;;5053242;28;20043;-64
2023/12/21 09:04:09;;;;;;;6.28;1.85;;;11.60;87.70;;;;;;5053063;28;20024;-64
2023/12/21 09:06:35;;;;;;;8.23;2.25;;;11.50;87.70;;;;;;5052140;28;20025;-64
2023/12/21 09:09:04;;;;;;;5.40;1.90;;;11.50;87.80;;;;;;5052372;28;20472;-65
2023/12/21 09:11:30;;;;;;;6.72;1.90;;;11.60;87.80;;;;;;5052902;28;20025;-63
2023/12/21 09:13:56;;;;;;;8.30;1.90;;;11.60;87.80;;;;;;5053132;28;20496;-63
2023/12/21 09:16:22;;;;;;;7.57;2.15;;;11.60;87.90;;;;;;5053587;28;20021;-63
2023/12/21 09:18:48;;;;;;;6.18;1.92;;;11.50;87.80;;;;;;5052395;28;20060;-63
2023/12/21 09:21:14;;;;;;;8.45;2.00;;;11.50;87.90;;;;;;5054363;28;20098;-62
2023/12/21 09:23:41;;;;;;;10.15;2.30;;;11.60;88.00;;;;;;5052841;28;20517;-62
2023/12/21 09:26:10;;;;;;;7.95;1.85;;;11.60;88.00;;;;;;5053131;28;20090;-64
2023/12/21 09:28:37;;;;;;;7.80;2.05;;;11.60;88.00;;;;;;5052527;28;20035;-64
2023/12/21 09:31:04;;;;;;;7.25;1.75;;;11.60;88.00;;;;;;5046686;28;20030;-64
2023/12/21 09:33:33;;;;;;;4.78;1.30;;;11.60;87.90;;;;;;5052780;28;20029;-64
2023/12/21 09:36:03;;;;;;;6.00;1.70;;;11.60;87.90;;;;;;5053638;28;20131;-64
2023/12/21 09:38:28;;;;;;;5.53;1.75;;;11.60;87.90;;;;;;5053051;28;20068;-65
2023/12/21 09:40:56;;;;;;;5.63;1.63;;;11.60;87.90;;;;;;5060973;28;20060;-63
2023/12/21 09:43:23;;;;;;;7.55;1.90;;;11.70;88.00;;;;;;5069691;28;20074;-64
2023/12/21 09:45:52;;;;;;;6.22;1.83;;;11.60;88.00;;;;;;5073675;28;20086;-63
2023/12/21 09:48:20;;;;;;;4.97;1.45;;;11.70;88.00;;;;;;5070365;28;20056;-64
2023/12/21 09:50:51;;;;;;;4.78;1.50;;;11.70;88.00;;;;;;5060719;28;20039;-64
2023/12/21 09:53:22;;;;;;;9.07;2.13;;;11.70;88.00;;;;;;5058960;28;20120;-63
2023/12/21 09:55:49;;;;;;;7.70;1.97;;;11.70;88.00;;;;;;5070086;28;20039;-64
2023/12/21 09:58:15;;;;;;;6.82;1.55;;;11.70;88.00;;;;;;5070320;28;20357;-64
2023/12/21 10:00:41;;;;;;;3.75;1.52;;;11.70;88.10;;;;;;5063228;28;20465;-64
2023/12/21 10:03:07;;;;;;;6.97;2.10;;;11.70;88.10;;;;;;5059732;28;20033;-64
2023/12/21 10:05:34;;;;;;;8.25;1.88;;;11.70;88.10;;;;;;5060745;28;20082;-64
2023/12/21 10:08:00;;;;;;;6.35;2.20;;;11.70;88.10;;;;;;5064499;28;20036;-64
2023/12/21 10:10:26;;;;;;;12.90;2.05;;;11.80;88.10;;;;;;5060508;28;20024;-64
2023/12/21 10:12:52;;;;;;;7.95;1.67;;;11.80;88.10;;;;;;5065392;28;20319;-64
2023/12/21 10:15:19;;;;;;;5.07;1.73;;;11.80;88.10;;;;;;5056854;28;20040;-64
2023/12/21 10:17:45;;;;;;;8.23;1.75;;;11.80;88.10;;;;;;5055189;28;20063;-64
2023/12/21 10:20:12;;;;;;;6.38;1.90;;;11.80;88.00;;;;;;5061075;28;20017;-64
2023/12/21 10:22:43;;;;;;;8.00;2.05;;;11.80;88.00;;;;;;5073633;28;20043;-64
2023/12/21 10:25:12;;;;;;;5.22;1.45;;;11.90;88.10;;;;;;5061995;28;20044;-64
2023/12/21 10:27:40;;;;;;;6.15;1.55;;;11.90;88.10;;;;;;5059527;28;20025;-64
2023/12/21 10:30:06;;;;;;;7.93;1.77;;;11.90;88.10;;;;;;5072782;28;20498;-64
2023/12/21 10:32:32;;;;;;;4.68;1.40;;;11.90;88.10;;;;;;5074352;28;20028;-64
2023/12/21 10:34:59;;;;;;;8.45;1.50;;;11.90;88.10;;;;;;5063753;28;20020;-64
2023/12/21 10:37:25;;;;;;;5.22;1.50;;;11.90;88.10;;;;;;5072780;28;20054;-64
2023/12/21 10:39:52;;;;;;;9.73;2.17;;;11.90;88.10;;;;;;5073144;28;20071;-64
2023/12/21 10:42:19;;;;;;;5.38;1.23;;;11.90;88.10;;;;;;5073146;28;20063;-64
2023/12/21 10:44:47;;;;;;;5.90;1.58;;;12.00;88.10;;;;;;5063561;28;20393;-64
2023/12/21 10:47:16;;;;;;;4.10;1.40;;;12.00;88.10;;;;;;5072727;28;20111;-64
2023/12/21 10:49:43;;;;;;;6.10;1.50;;;12.00;88.10;;;;;;5072879;28;20040;-64
2023/12/21 10:52:13;;;;;;;5.00;1.20;;;12.00;88.10;;;;;;5073088;28;20033;-64
2023/12/21 10:54:42;;;;;;;7.63;1.50;;;12.00;88.00;;;;;;5066524;28;20446;-64
2023/12/21 10:57:12;;;;;;;5.10;1.33;;;12.10;88.00;;;;;;5062522;28;20085;-64
2023/12/21 10:59:38;;;;;;;6.97;1.40;;;12.10;88.00;;;;;;5048171;28;20016;-65
2023/12/21 11:02:08;;;;;;;4.57;1.17;;;12.10;88.00;;;;;;5076056;28;20074;-64
2023/12/21 11:04:35;;;;;;;6.53;1.45;;;12.10;87.90;;;;;;5064090;28;20036;-65
2023/12/21 11:07:03;;;;;;;4.05;1.10;;;12.10;87.90;;;;;;5064619;28;20124;-64
2023/12/21 11:09:31;;;;;;;8.55;1.92;;;12.20;87.90;;;;;;5061677;28;20454;-64
2023/12/21 11:11:58;;;;;;;8.27;1.60;;;12.20;87.90;;;;;;5064115;28;20024;-63
2023/12/21 11:14:24;;;;;;;5.75;1.45;;;12.20;87.80;;;;;;5063725;28;20277;-64
2023/12/21 11:16:55;;;;;;;5.28;1.40;;;12.20;87.80;;;;;;5058880;28;20103;-64
2023/12/21 11:19:31;;;;;;;5.22;1.58;;;12.20;87.90;;;;;;5062473;28;20025;-66
2023/12/21 11:21:57;;;;;;;3.38;1.10;;;12.20;87.90;;;;;;5059890;28;20025;-64
2023/12/21 11:24:24;;;;;;;8.48;1.50;;;12.20;87.90;;;;;;5048809;28;20045;-63
2023/12/21 11:26:50;;;;;;;4.93;1.15;;;12.20;87.80;;;;;;5048653;28;20075;-64
2023/12/21 11:29:23;;;;;;;3.63;0.95;;;12.20;87.80;;;;;;5056224;28;20025;-63
2023/12/21 11:31:49;;;;;;;5.43;1.70;;;12.30;87.80;;;;;;5056229;28;20029;-63
2023/12/21 11:34:21;;;;;;;6.38;1.20;;;12.20;87.70;;;;;;5054684;28;20047;-63
2023/12/21 11:36:52;;;;;;;;;;;12.30;87.80;;;;;;5053251;28;20416;-63
2023/12/21 11:39:19;;;;;;;4.38;1.23;;;12.30;87.70;;;;;;5056219;28;19916;-63
2023/12/21 11:42:03;;;;;;;5.00;1.38;;;12.20;87.60;;;;;;5055760;28;20036;-63
2023/12/21 11:44:38;;;;;;;5.55;1.42;;;12.30;88.30;;;;;;5054837;28;20040;-63
2023/12/21 11:47:12;;;;;;;6.10;1.63;;;12.30;87.60;;;;;;5063437;28;20071;-63
2023/12/21 11:49:38;;;;;;;4.75;1.52;;;12.30;87.60;;;;;;5073288;28;20035;-63
2023/12/21 11:52:04;;;;;;;3.67;1.20;;;12.30;87.70;;;;;;5067351;28;20410;-64
2023/12/21 11:54:30;;;;;;;6.18;1.20;;;12.30;87.60;;;;;;5055465;28;20029;-63
2023/12/21 11:57:11;;;;;;;7.40;1.48;;;12.40;88.20;;;;;;5049300;28;20362;-63
2023/12/21 11:59:36;;;;;;;3.35;1.30;;;12.40;87.40;;;;;;5063237;28;20029;-64
2023/12/21 12:02:06;;;;;;;5.22;1.52;;;12.40;88.10;;;;;;5065130;28;20020;-64
2023/12/21 12:04:32;;;;;;;5.30;1.40;;;12.40;87.50;;;;;;5043381;28;20169;-64
2023/12/21 12:06:58;;;;;;;4.72;1.55;;;12.40;87.40;;;;;;5049351;28;20076;-64
2023/12/21 12:09:24;;;;;;;6.40;1.75;;;12.40;87.40;;;;;;5060485;28;20033;-63
2023/12/21 12:11:51;;;;;;;6.32;1.80;;;12.40;87.40;;;;;;5052209;28;20343;-64
2023/12/21 12:14:20;;;;;;;8.55;1.90;;;12.40;87.40;;;;;;5052040;28;20036;-64
2023/12/21 12:16:46;;;;;;;6.55;1.77;;;12.50;87.40;;;;;;5046680;28;20029;-64
2023/12/21 12:19:12;;;;;;;11.93;2.05;;;12.50;87.40;;;;;;5075896;28;20415;-63
2023/12/21 12:21:39;;;;;;;6.57;1.38;;;12.50;87.40;;;;;;5061819;28;20060;-63
2023/12/21 12:24:07;;;;;;;7.35;1.70;;;12.50;87.30;;;;;;5055697;28;20029;-64
2023/12/21 12:26:36;;;;;;;6.97;1.75;;;12.60;87.20;;;;;;5056770;28;20104;-64
2023/12/21 12:29:03;;;;;;;4.55;1.50;;;12.60;86.90;;;;;;5057819;28;20393;-64
2023/12/21 12:31:29;;;;;;;7.82;1.63;;;12.70;86.80;;;;;;5075606;28;20032;-64
2023/12/21 12:33:55;;;;;;;7.43;1.70;;;12.80;86.80;;;;;;5075155;28;20020;-64
2023/12/21 12:36:21;;;;;;;5.07;1.50;;;12.80;86.60;;;;;;5075143;28;20044;-63
2023/12/21 12:38:48;;;;;;;7.00;1.88;;;12.80;86.50;;;;;;5075539;28;20315;-64